sensor_id;sensor_type;location;lat;lon;timestamp;P1;durP1;ratioP1;P2;durP2;ratioP2
12852;SDS011;6495;51.808;7.478;2022-09-03T00:02:22;1.83;;;1.20;;
12852;SDS011;6495;51.808;7.478;2022-09-03T00:04:59;1.60;;;1.35;;
12852;SDS011;6495;51.808;7.478;2022-09-03T00:07:41;1.20;;;1.10;;
12852;SDS011;6495;51.808;7.478;2022-09-03T00:10:20;1.20;;;1.10;;
12852;SDS011;6495;51.808;7.478;2022-09-03T00:12:56;3.55;;;1.13;;
12852;SDS011;6495;51.808;7.478;2022-09-03T00:15:29;1.63;;;1.10;;
12852;SDS011;6495;51.808;7.478;2022-09-03T00:18:04;1.17;;;1.08;;
12852;SDS011;6495;51.808;7.478;2022-09-03T00:20:38;1.10;;;1.05;;
12852;SDS011;6495;51.808;7.478;2022-09-03T00:23:13;2.03;;;1.23;;
12852;SDS011;6495;51.808;7.478;2022-09-03T00:25:48;0.90;;;0.90;;
12852;SDS011;6495;51.808;7.478;2022-09-03T00:28:25;1.88;;;1.10;;
12852;SDS011;6495;51.808;7.478;2022-09-03T00:31:05;2.58;;;1.30;;
12852;SDS011;6495;51.808;7.478;2022-09-03T00:33:43;2.13;;;1.20;;
12852;SDS011;6495;51.808;7.478;2022-09-03T00:36:15;1.10;;;1.00;;
12852;SDS011;6495;51.808;7.478;2022-09-03T00:38:51;1.38;;;1.20;;
12852;SDS011;6495;51.808;7.478;2022-09-03T00:41:22;1.98;;;1.23;;
12852;SDS011;6495;51.808;7.478;2022-09-03T00:44:03;2.28;;;1.27;;
12852;SDS011;6495;51.808;7.478;2022-09-03T00:46:54;1.65;;;1.55;;
12852;SDS011;6495;51.808;7.478;2022-09-03T00:49:36;1.48;;;1.23;;
12852;SDS011;6495;51.808;7.478;2022-09-03T00:52:25;1.33;;;1.20;;
12852;SDS011;6495;51.808;7.478;2022-09-03T00:55:15;1.10;;;0.95;;
12852;SDS011;6495;51.808;7.478;2022-09-03T00:58:02;1.67;;;1.25;;
12852;SDS011;6495;51.808;7.478;2022-09-03T01:00:55;1.67;;;1.00;;
12852;SDS011;6495;51.808;7.478;2022-09-03T01:03:25;1.27;;;0.98;;
12852;SDS011;6495;51.808;7.478;2022-09-03T01:06:10;1.00;;;1.00;;
12852;SDS011;6495;51.808;7.478;2022-09-03T01:11:55;1.98;;;1.05;;
12852;SDS011;6495;51.808;7.478;2022-09-03T01:14:37;1.45;;;1.17;;
12852;SDS011;6495;51.808;7.478;2022-09-03T01:17:27;1.80;;;1.20;;
12852;SDS011;6495;51.808;7.478;2022-09-03T01:23:34;1.30;;;1.20;;
12852;SDS011;6495;51.808;7.478;2022-09-03T01:26:27;1.25;;;1.15;;
12852;SDS011;6495;51.808;7.478;2022-09-03T01:29:11;1.90;;;1.10;;
12852;SDS011;6495;51.808;7.478;2022-09-03T01:31:56;1.38;;;1.20;;
12852;SDS011;6495;51.808;7.478;2022-09-03T01:34:37;4.30;;;1.10;;
12852;SDS011;6495;51.808;7.478;2022-09-03T01:37:22;2.35;;;1.13;;
12852;SDS011;6495;51.808;7.478;2022-09-03T01:40:02;1.05;;;1.00;;
12852;SDS011;6495;51.808;7.478;2022-09-03T01:42:48;1.45;;;1.17;;
12852;SDS011;6495;51.808;7.478;2022-09-03T01:45:36;4.55;;;1.23;;
12852;SDS011;6495;51.808;7.478;2022-09-03T01:48:20;1.38;;;1.20;;
12852;SDS011;6495;51.808;7.478;2022-09-03T01:51:08;1.73;;;1.02;;
12852;SDS011;6495;51.808;7.478;2022-09-03T01:53:59;1.52;;;1.10;;
12852;SDS011;6495;51.808;7.478;2022-09-03T01:57:16;1.05;;;0.98;;
12852;SDS011;6495;51.808;7.478;2022-09-03T02:00:04;1.17;;;0.95;;
12852;SDS011;6495;51.808;7.478;2022-09-03T02:02:39;2.20;;;1.20;;
12852;SDS011;6495;51.808;7.478;2022-09-03T02:05:14;1.67;;;1.25;;
12852;SDS011;6495;51.808;7.478;2022-09-03T02:07:50;2.55;;;0.95;;
12852;SDS011;6495;51.808;7.478;2022-09-03T02:10:24;1.33;;;1.23;;
12852;SDS011;6495;51.808;7.478;2022-09-03T02:12:58;3.28;;;1.17;;
12852;SDS011;6495;51.808;7.478;2022-09-03T02:15:32;1.65;;;1.20;;
12852;SDS011;6495;51.808;7.478;2022-09-03T02:18:06;1.85;;;1.20;;
12852;SDS011;6495;51.808;7.478;2022-09-03T02:20:43;2.17;;;1.20;;
12852;SDS011;6495;51.808;7.478;2022-09-03T02:23:13;1.02;;;1.00;;
12852;SDS011;6495;51.808;7.478;2022-09-03T02:25:43;1.92;;;1.30;;
12852;SDS011;6495;51.808;7.478;2022-09-03T02:28:16;1.33;;;1.20;;
12852;SDS011;6495;51.808;7.478;2022-09-03T02:30:44;1.17;;;1.08;;
12852;SDS011;6495;51.808;7.478;2022-09-03T02:33:14;1.40;;;1.30;;
12852;SDS011;6495;51.808;7.478;2022-09-03T02:35:43;1.60;;;1.10;;
12852;SDS011;6495;51.808;7.478;2022-09-03T02:38:12;1.15;;;1.05;;
12852;SDS011;6495;51.808;7.478;2022-09-03T02:40:46;1.30;;;1.20;;
12852;SDS011;6495;51.808;7.478;2022-09-03T02:43:15;1.38;;;1.20;;
12852;SDS011;6495;51.808;7.478;2022-09-03T02:45:51;1.38;;;1.17;;
12852;SDS011;6495;51.808;7.478;2022-09-03T02:48:28;1.45;;;1.10;;
12852;SDS011;6495;51.808;7.478;2022-09-03T02:50:56;1.85;;;1.10;;
12852;SDS011;6495;51.808;7.478;2022-09-03T02:53:25;1.73;;;1.05;;
12852;SDS011;6495;51.808;7.478;2022-09-03T02:55:56;1.30;;;1.17;;
12852;SDS011;6495;51.808;7.478;2022-09-03T02:58:26;2.20;;;1.20;;
12852;SDS011;6495;51.808;7.478;2022-09-03T03:00:57;2.00;;;1.20;;
12852;SDS011;6495;51.808;7.478;2022-09-03T03:03:25;1.33;;;1.10;;
12852;SDS011;6495;51.808;7.478;2022-09-03T03:05:55;1.58;;;1.25;;
12852;SDS011;6495;51.808;7.478;2022-09-03T03:08:28;3.85;;;1.20;;
12852;SDS011;6495;51.808;7.478;2022-09-03T03:10:58;1.33;;;1.20;;
12852;SDS011;6495;51.808;7.478;2022-09-03T03:13:26;2.25;;;1.23;;
12852;SDS011;6495;51.808;7.478;2022-09-03T03:15:56;1.35;;;1.15;;
12852;SDS011;6495;51.808;7.478;2022-09-03T03:18:25;2.78;;;1.30;;
12852;SDS011;6495;51.808;7.478;2022-09-03T03:20:56;1.42;;;1.10;;
12852;SDS011;6495;51.808;7.478;2022-09-03T03:23:30;2.33;;;1.05;;
12852;SDS011;6495;51.808;7.478;2022-09-03T03:25:59;1.20;;;1.10;;
12852;SDS011;6495;51.808;7.478;2022-09-03T03:28:28;1.75;;;1.27;;
12852;SDS011;6495;51.808;7.478;2022-09-03T03:31:03;2.25;;;1.20;;
12852;SDS011;6495;51.808;7.478;2022-09-03T03:33:33;1.42;;;1.30;;
12852;SDS011;6495;51.808;7.478;2022-09-03T03:36:06;1.38;;;1.27;;
12852;SDS011;6495;51.808;7.478;2022-09-03T03:38:37;1.40;;;1.30;;
12852;SDS011;6495;51.808;7.478;2022-09-03T03:41:06;2.40;;;1.20;;
12852;SDS011;6495;51.808;7.478;2022-09-03T03:43:35;1.50;;;1.13;;
12852;SDS011;6495;51.808;7.478;2022-09-03T03:46:04;1.30;;;1.20;;
12852;SDS011;6495;51.808;7.478;2022-09-03T03:48:32;1.40;;;1.30;;
12852;SDS011;6495;51.808;7.478;2022-09-03T03:51:01;1.02;;;1.02;;
12852;SDS011;6495;51.808;7.478;2022-09-03T03:53:34;1.40;;;1.05;;
12852;SDS011;6495;51.808;7.478;2022-09-03T03:56:04;0.93;;;0.93;;
12852;SDS011;6495;51.808;7.478;2022-09-03T03:58:36;1.98;;;1.38;;
12852;SDS011;6495;51.808;7.478;2022-09-03T04:01:09;1.45;;;1.23;;
12852;SDS011;6495;51.808;7.478;2022-09-03T04:03:40;2.75;;;1.20;;
12852;SDS011;6495;51.808;7.478;2022-09-03T04:06:10;1.88;;;1.30;;
12852;SDS011;6495;51.808;7.478;2022-09-03T04:08:42;1.23;;;1.02;;
12852;SDS011;6495;51.808;7.478;2022-09-03T04:11:15;1.60;;;1.40;;
12852;SDS011;6495;51.808;7.478;2022-09-03T04:13:46;3.55;;;1.13;;
12852;SDS011;6495;51.808;7.478;2022-09-03T04:16:15;1.42;;;1.20;;
12852;SDS011;6495;51.808;7.478;2022-09-03T04:18:46;3.60;;;1.20;;
12852;SDS011;6495;51.808;7.478;2022-09-03T04:21:15;3.05;;;1.58;;
12852;SDS011;6495;51.808;7.478;2022-09-03T04:23:47;2.75;;;1.30;;
12852;SDS011;6495;51.808;7.478;2022-09-03T04:26:18;3.95;;;1.58;;
12852;SDS011;6495;51.808;7.478;2022-09-03T04:28:48;1.80;;;1.30;;
12852;SDS011;6495;51.808;7.478;2022-09-03T04:31:17;1.20;;;1.10;;
12852;SDS011;6495;51.808;7.478;2022-09-03T04:33:46;1.25;;;1.13;;
12852;SDS011;6495;51.808;7.478;2022-09-03T04:36:17;1.30;;;1.20;;
12852;SDS011;6495;51.808;7.478;2022-09-03T04:38:49;1.90;;;1.10;;
12852;SDS011;6495;51.808;7.478;2022-09-03T04:41:20;1.50;;;1.20;;
12852;SDS011;6495;51.808;7.478;2022-09-03T04:43:51;1.40;;;1.30;;
12852;SDS011;6495;51.808;7.478;2022-09-03T04:46:21;1.00;;;1.00;;
12852;SDS011;6495;51.808;7.478;2022-09-03T04:48:53;1.33;;;1.10;;
12852;SDS011;6495;51.808;7.478;2022-09-03T04:51:24;2.92;;;1.50;;
12852;SDS011;6495;51.808;7.478;2022-09-03T04:53:56;1.20;;;1.10;;
12852;SDS011;6495;51.808;7.478;2022-09-03T04:56:27;1.83;;;1.20;;
12852;SDS011;6495;51.808;7.478;2022-09-03T04:58:57;1.27;;;1.13;;
12852;SDS011;6495;51.808;7.478;2022-09-03T05:01:28;1.20;;;1.10;;
12852;SDS011;6495;51.808;7.478;2022-09-03T05:03:58;1.30;;;1.20;;
12852;SDS011;6495;51.808;7.478;2022-09-03T05:06:28;4.55;;;1.38;;
12852;SDS011;6495;51.808;7.478;2022-09-03T05:08:59;1.50;;;1.20;;
12852;SDS011;6495;51.808;7.478;2022-09-03T05:11:27;2.05;;;1.38;;
12852;SDS011;6495;51.808;7.478;2022-09-03T05:13:57;3.08;;;1.48;;
12852;SDS011;6495;51.808;7.478;2022-09-03T05:16:27;1.40;;;1.15;;
12852;SDS011;6495;51.808;7.478;2022-09-03T05:18:57;1.65;;;1.30;;
12852;SDS011;6495;51.808;7.478;2022-09-03T05:21:27;1.45;;;1.20;;
12852;SDS011;6495;51.808;7.478;2022-09-03T05:23:57;1.40;;;1.30;;
12852;SDS011;6495;51.808;7.478;2022-09-03T05:26:29;1.40;;;1.27;;
12852;SDS011;6495;51.808;7.478;2022-09-03T05:29:00;1.67;;;1.17;;
12852;SDS011;6495;51.808;7.478;2022-09-03T05:31:33;2.05;;;1.50;;
12852;SDS011;6495;51.808;7.478;2022-09-03T05:34:04;1.38;;;1.27;;
12852;SDS011;6495;51.808;7.478;2022-09-03T05:36:34;2.05;;;1.30;;
12852;SDS011;6495;51.808;7.478;2022-09-03T05:39:06;1.83;;;1.25;;
12852;SDS011;6495;51.808;7.478;2022-09-03T05:41:34;4.38;;;1.30;;
12852;SDS011;6495;51.808;7.478;2022-09-03T05:44:02;2.80;;;1.42;;
12852;SDS011;6495;51.808;7.478;2022-09-03T05:46:31;1.98;;;1.20;;
12852;SDS011;6495;51.808;7.478;2022-09-03T05:49:03;2.83;;;1.45;;
12852;SDS011;6495;51.808;7.478;2022-09-03T05:51:33;2.05;;;1.45;;
12852;SDS011;6495;51.808;7.478;2022-09-03T05:54:02;1.20;;;1.08;;
12852;SDS011;6495;51.808;7.478;2022-09-03T05:56:32;1.75;;;1.30;;
12852;SDS011;6495;51.808;7.478;2022-09-03T05:59:02;3.22;;;1.30;;
12852;SDS011;6495;51.808;7.478;2022-09-03T06:01:33;1.48;;;1.20;;
12852;SDS011;6495;51.808;7.478;2022-09-03T06:04:18;1.42;;;1.05;;
12852;SDS011;6495;51.808;7.478;2022-09-03T06:06:46;1.35;;;1.25;;
12852;SDS011;6495;51.808;7.478;2022-09-03T06:09:16;2.15;;;1.40;;
12852;SDS011;6495;51.808;7.478;2022-09-03T06:11:50;1.38;;;1.05;;
12852;SDS011;6495;51.808;7.478;2022-09-03T06:14:19;2.30;;;1.30;;
12852;SDS011;6495;51.808;7.478;2022-09-03T06:16:48;2.90;;;1.20;;
12852;SDS011;6495;51.808;7.478;2022-09-03T06:19:21;1.23;;;1.13;;
12852;SDS011;6495;51.808;7.478;2022-09-03T06:21:49;1.70;;;1.30;;
12852;SDS011;6495;51.808;7.478;2022-09-03T06:24:19;1.92;;;1.48;;
12852;SDS011;6495;51.808;7.478;2022-09-03T06:26:54;2.10;;;1.20;;
12852;SDS011;6495;51.808;7.478;2022-09-03T06:29:23;2.50;;;1.30;;
12852;SDS011;6495;51.808;7.478;2022-09-03T06:31:51;3.00;;;1.40;;
12852;SDS011;6495;51.808;7.478;2022-09-03T06:34:19;3.88;;;1.25;;
12852;SDS011;6495;51.808;7.478;2022-09-03T06:36:48;2.10;;;1.30;;
12852;SDS011;6495;51.808;7.478;2022-09-03T06:39:19;2.60;;;1.48;;
12852;SDS011;6495;51.808;7.478;2022-09-03T06:41:47;1.33;;;1.23;;
12852;SDS011;6495;51.808;7.478;2022-09-03T06:44:18;1.38;;;1.27;;
12852;SDS011;6495;51.808;7.478;2022-09-03T06:46:46;3.35;;;1.35;;
12852;SDS011;6495;51.808;7.478;2022-09-03T06:49:14;2.22;;;1.10;;
12852;SDS011;6495;51.808;7.478;2022-09-03T06:51:42;1.55;;;1.40;;
12852;SDS011;6495;51.808;7.478;2022-09-03T06:54:10;1.30;;;1.20;;
12852;SDS011;6495;51.808;7.478;2022-09-03T06:56:40;1.40;;;1.30;;
12852;SDS011;6495;51.808;7.478;2022-09-03T06:59:09;1.98;;;1.40;;
12852;SDS011;6495;51.808;7.478;2022-09-03T07:01:40;1.30;;;1.13;;
12852;SDS011;6495;51.808;7.478;2022-09-03T07:04:12;1.40;;;1.30;;
12852;SDS011;6495;51.808;7.478;2022-09-03T07:06:45;1.35;;;1.25;;
12852;SDS011;6495;51.808;7.478;2022-09-03T07:09:13;1.88;;;1.30;;
12852;SDS011;6495;51.808;7.478;2022-09-03T07:11:44;1.67;;;1.20;;
12852;SDS011;6495;51.808;7.478;2022-09-03T07:14:14;1.30;;;1.20;;
12852;SDS011;6495;51.808;7.478;2022-09-03T07:16:45;1.20;;;1.10;;
12852;SDS011;6495;51.808;7.478;2022-09-03T07:19:17;2.33;;;1.20;;
12852;SDS011;6495;51.808;7.478;2022-09-03T07:21:45;2.42;;;1.27;;
12852;SDS011;6495;51.808;7.478;2022-09-03T07:24:16;1.63;;;1.52;;
12852;SDS011;6495;51.808;7.478;2022-09-03T07:26:48;1.90;;;1.38;;
12852;SDS011;6495;51.808;7.478;2022-09-03T07:29:16;2.28;;;1.45;;
12852;SDS011;6495;51.808;7.478;2022-09-03T07:31:48;1.48;;;1.38;;
12852;SDS011;6495;51.808;7.478;2022-09-03T07:34:19;1.40;;;1.30;;
12852;SDS011;6495;51.808;7.478;2022-09-03T07:36:51;2.17;;;1.30;;
12852;SDS011;6495;51.808;7.478;2022-09-03T07:39:20;2.08;;;1.30;;
12852;SDS011;6495;51.808;7.478;2022-09-03T07:41:48;1.77;;;1.17;;
12852;SDS011;6495;51.808;7.478;2022-09-03T07:44:16;2.45;;;1.30;;
12852;SDS011;6495;51.808;7.478;2022-09-03T07:46:45;1.30;;;1.10;;
12852;SDS011;6495;51.808;7.478;2022-09-03T07:49:17;1.80;;;1.30;;
12852;SDS011;6495;51.808;7.478;2022-09-03T07:51:46;1.73;;;1.20;;
12852;SDS011;6495;51.808;7.478;2022-09-03T07:54:18;1.63;;;1.27;;
12852;SDS011;6495;51.808;7.478;2022-09-03T07:56:46;1.25;;;1.10;;
12852;SDS011;6495;51.808;7.478;2022-09-03T07:59:15;1.40;;;1.30;;
12852;SDS011;6495;51.808;7.478;2022-09-03T08:01:44;4.00;;;1.30;;
12852;SDS011;6495;51.808;7.478;2022-09-03T08:04:13;1.58;;;1.30;;
12852;SDS011;6495;51.808;7.478;2022-09-03T08:06:41;1.90;;;1.20;;
12852;SDS011;6495;51.808;7.478;2022-09-03T08:09:10;1.77;;;1.10;;
12852;SDS011;6495;51.808;7.478;2022-09-03T08:11:40;2.67;;;1.30;;
12852;SDS011;6495;51.808;7.478;2022-09-03T08:14:10;4.43;;;1.08;;
12852;SDS011;6495;51.808;7.478;2022-09-03T08:16:41;1.13;;;1.02;;
12852;SDS011;6495;51.808;7.478;2022-09-03T08:19:13;1.20;;;1.00;;
12852;SDS011;6495;51.808;7.478;2022-09-03T08:21:43;3.75;;;1.48;;
12852;SDS011;6495;51.808;7.478;2022-09-03T08:24:11;1.85;;;1.30;;
12852;SDS011;6495;51.808;7.478;2022-09-03T08:26:41;1.30;;;1.20;;
12852;SDS011;6495;51.808;7.478;2022-09-03T08:29:16;3.22;;;1.50;;
12852;SDS011;6495;51.808;7.478;2022-09-03T08:31:45;1.40;;;1.30;;
12852;SDS011;6495;51.808;7.478;2022-09-03T08:34:14;1.65;;;1.35;;
12852;SDS011;6495;51.808;7.478;2022-09-03T08:36:43;1.73;;;1.20;;
12852;SDS011;6495;51.808;7.478;2022-09-03T08:39:12;4.13;;;1.13;;
12852;SDS011;6495;51.808;7.478;2022-09-03T08:41:45;1.42;;;1.25;;
12852;SDS011;6495;51.808;7.478;2022-09-03T08:44:35;1.60;;;1.27;;
12852;SDS011;6495;51.808;7.478;2022-09-03T08:47:13;1.42;;;1.20;;
12852;SDS011;6495;51.808;7.478;2022-09-03T08:49:50;1.77;;;1.40;;
12852;SDS011;6495;51.808;7.478;2022-09-03T08:52:24;1.35;;;1.25;;
12852;SDS011;6495;51.808;7.478;2022-09-03T08:55:00;1.20;;;1.10;;
12852;SDS011;6495;51.808;7.478;2022-09-03T08:57:45;1.17;;;1.08;;
12852;SDS011;6495;51.808;7.478;2022-09-03T09:00:16;1.50;;;1.08;;
12852;SDS011;6495;51.808;7.478;2022-09-03T09:02:47;2.13;;;1.45;;
12852;SDS011;6495;51.808;7.478;2022-09-03T09:05:36;2.20;;;1.05;;
12852;SDS011;6495;51.808;7.478;2022-09-03T09:08:19;2.90;;;1.30;;
12852;SDS011;6495;51.808;7.478;2022-09-03T09:10:57;1.40;;;1.30;;
12852;SDS011;6495;51.808;7.478;2022-09-03T09:13:37;2.60;;;1.40;;
12852;SDS011;6495;51.808;7.478;2022-09-03T09:16:17;4.47;;;1.50;;
12852;SDS011;6495;51.808;7.478;2022-09-03T09:18:55;2.42;;;1.27;;
12852;SDS011;6495;51.808;7.478;2022-09-03T09:21:41;1.40;;;1.30;;
12852;SDS011;6495;51.808;7.478;2022-09-03T09:24:18;2.78;;;1.30;;
12852;SDS011;6495;51.808;7.478;2022-09-03T09:26:52;5.05;;;1.40;;
12852;SDS011;6495;51.808;7.478;2022-09-03T09:29:26;3.40;;;1.45;;
12852;SDS011;6495;51.808;7.478;2022-09-03T09:31:59;2.13;;;1.30;;
12852;SDS011;6495;51.808;7.478;2022-09-03T09:34:32;1.60;;;1.40;;
12852;SDS011;6495;51.808;7.478;2022-09-03T09:37:04;1.48;;;1.30;;
12852;SDS011;6495;51.808;7.478;2022-09-03T09:39:38;2.45;;;1.30;;
12852;SDS011;6495;51.808;7.478;2022-09-03T09:42:09;1.20;;;1.10;;
12852;SDS011;6495;51.808;7.478;2022-09-03T09:44:39;1.65;;;1.48;;
12852;SDS011;6495;51.808;7.478;2022-09-03T09:47:11;2.25;;;1.58;;
12852;SDS011;6495;51.808;7.478;2022-09-03T09:49:49;3.05;;;1.20;;
12852;SDS011;6495;51.808;7.478;2022-09-03T09:52:22;2.70;;;1.20;;
12852;SDS011;6495;51.808;7.478;2022-09-03T09:55:04;1.52;;;1.20;;
12852;SDS011;6495;51.808;7.478;2022-09-03T09:57:35;3.50;;;1.15;;
12852;SDS011;6495;51.808;7.478;2022-09-03T10:00:05;2.58;;;1.30;;
12852;SDS011;6495;51.808;7.478;2022-09-03T10:02:46;2.33;;;1.25;;
12852;SDS011;6495;51.808;7.478;2022-09-03T10:05:19;1.45;;;1.13;;
12852;SDS011;6495;51.808;7.478;2022-09-03T10:07:55;1.00;;;0.98;;
12852;SDS011;6495;51.808;7.478;2022-09-03T10:10:25;4.18;;;1.35;;
12852;SDS011;6495;51.808;7.478;2022-09-03T10:12:58;2.65;;;1.30;;
12852;SDS011;6495;51.808;7.478;2022-09-03T10:15:35;5.07;;;1.38;;
12852;SDS011;6495;51.808;7.478;2022-09-03T10:18:14;2.20;;;1.50;;
12852;SDS011;6495;51.808;7.478;2022-09-03T10:20:54;2.10;;;1.30;;
12852;SDS011;6495;51.808;7.478;2022-09-03T10:23:34;1.25;;;1.10;;
12852;SDS011;6495;51.808;7.478;2022-09-03T10:26:19;1.30;;;1.10;;
12852;SDS011;6495;51.808;7.478;2022-09-03T10:28:58;1.38;;;1.27;;
12852;SDS011;6495;51.808;7.478;2022-09-03T10:34:40;1.30;;;1.20;;
12852;SDS011;6495;51.808;7.478;2022-09-03T10:37:26;3.50;;;1.30;;
12852;SDS011;6495;51.808;7.478;2022-09-03T10:40:09;2.85;;;1.30;;
12852;SDS011;6495;51.808;7.478;2022-09-03T10:43:02;2.80;;;1.33;;
12852;SDS011;6495;51.808;7.478;2022-09-03T10:45:47;2.33;;;1.30;;
12852;SDS011;6495;51.808;7.478;2022-09-03T10:48:38;4.60;;;1.42;;
12852;SDS011;6495;51.808;7.478;2022-09-03T10:51:26;5.13;;;1.70;;
12852;SDS011;6495;51.808;7.478;2022-09-03T10:57:09;4.57;;;1.60;;
12852;SDS011;6495;51.808;7.478;2022-09-03T10:59:53;2.65;;;1.52;;
12852;SDS011;6495;51.808;7.478;2022-09-03T11:02:51;1.73;;;1.20;;
12852;SDS011;6495;51.808;7.478;2022-09-03T11:05:54;1.85;;;1.40;;
12852;SDS011;6495;51.808;7.478;2022-09-03T11:08:29;5.03;;;1.63;;
12852;SDS011;6495;51.808;7.478;2022-09-03T11:11:06;1.40;;;1.30;;
12852;SDS011;6495;51.808;7.478;2022-09-03T11:13:43;1.30;;;1.20;;
12852;SDS011;6495;51.808;7.478;2022-09-03T11:16:18;1.50;;;1.40;;
12852;SDS011;6495;51.808;7.478;2022-09-03T11:18:53;1.38;;;1.23;;
12852;SDS011;6495;51.808;7.478;2022-09-03T11:21:27;1.50;;;1.40;;
12852;SDS011;6495;51.808;7.478;2022-09-03T11:24:01;2.95;;;1.30;;
12852;SDS011;6495;51.808;7.478;2022-09-03T11:26:38;1.83;;;1.30;;
12852;SDS011;6495;51.808;7.478;2022-09-03T11:29:14;4.53;;;1.50;;
12852;SDS011;6495;51.808;7.478;2022-09-03T11:31:51;1.92;;;1.33;;
12852;SDS011;6495;51.808;7.478;2022-09-03T11:34:30;1.40;;;1.30;;
12852;SDS011;6495;51.808;7.478;2022-09-03T11:37:03;3.95;;;1.45;;
12852;SDS011;6495;51.808;7.478;2022-09-03T11:39:51;11.38;;;2.05;;
12852;SDS011;6495;51.808;7.478;2022-09-03T11:42:31;1.70;;;1.33;;
12852;SDS011;6495;51.808;7.478;2022-09-03T11:48:27;1.95;;;1.20;;
12852;SDS011;6495;51.808;7.478;2022-09-03T11:51:16;1.50;;;1.30;;
12852;SDS011;6495;51.808;7.478;2022-09-03T11:53:56;1.40;;;1.30;;
12852;SDS011;6495;51.808;7.478;2022-09-03T11:57:02;2.05;;;1.85;;
12852;SDS011;6495;51.808;7.478;2022-09-03T11:59:38;1.40;;;1.30;;
12852;SDS011;6495;51.808;7.478;2022-09-03T12:02:16;1.55;;;1.30;;
12852;SDS011;6495;51.808;7.478;2022-09-03T12:05:08;1.50;;;1.40;;
12852;SDS011;6495;51.808;7.478;2022-09-03T12:11:14;1.75;;;1.23;;
12852;SDS011;6495;51.808;7.478;2022-09-03T12:14:05;2.05;;;1.30;;
12852;SDS011;6495;51.808;7.478;2022-09-03T12:16:58;1.92;;;1.40;;
12852;SDS011;6495;51.808;7.478;2022-09-03T12:19:41;1.33;;;1.23;;
12852;SDS011;6495;51.808;7.478;2022-09-03T12:22:18;3.95;;;1.42;;
12852;SDS011;6495;51.808;7.478;2022-09-03T12:24:48;2.60;;;1.48;;
12852;SDS011;6495;51.808;7.478;2022-09-03T12:27:18;1.33;;;1.23;;
12852;SDS011;6495;51.808;7.478;2022-09-03T12:29:51;1.95;;;1.35;;
12852;SDS011;6495;51.808;7.478;2022-09-03T12:32:23;1.83;;;1.35;;
12852;SDS011;6495;51.808;7.478;2022-09-03T12:34:54;1.67;;;1.38;;
12852;SDS011;6495;51.808;7.478;2022-09-03T12:37:23;4.35;;;1.50;;
12852;SDS011;6495;51.808;7.478;2022-09-03T12:40:17;1.98;;;1.45;;
12852;SDS011;6495;51.808;7.478;2022-09-03T12:42:47;2.13;;;1.50;;
12852;SDS011;6495;51.808;7.478;2022-09-03T12:45:18;3.00;;;1.52;;
12852;SDS011;6495;51.808;7.478;2022-09-03T12:47:49;1.23;;;1.13;;
12852;SDS011;6495;51.808;7.478;2022-09-03T12:50:20;1.90;;;1.40;;
12852;SDS011;6495;51.808;7.478;2022-09-03T12:52:50;1.73;;;1.27;;
12852;SDS011;6495;51.808;7.478;2022-09-03T12:55:25;1.50;;;1.40;;
12852;SDS011;6495;51.808;7.478;2022-09-03T12:58:03;2.20;;;1.15;;
12852;SDS011;6495;51.808;7.478;2022-09-03T13:00:40;2.20;;;1.50;;
12852;SDS011;6495;51.808;7.478;2022-09-03T13:03:15;1.60;;;1.50;;
12852;SDS011;6495;51.808;7.478;2022-09-03T13:05:53;2.22;;;1.63;;
12852;SDS011;6495;51.808;7.478;2022-09-03T13:08:26;5.10;;;1.50;;
12852;SDS011;6495;51.808;7.478;2022-09-03T13:11:00;1.75;;;1.40;;
12852;SDS011;6495;51.808;7.478;2022-09-03T13:13:32;1.65;;;1.50;;
12852;SDS011;6495;51.808;7.478;2022-09-03T13:16:09;1.98;;;1.65;;
12852;SDS011;6495;51.808;7.478;2022-09-03T13:19:05;2.60;;;1.60;;
12852;SDS011;6495;51.808;7.478;2022-09-03T13:21:49;1.60;;;1.50;;
12852;SDS011;6495;51.808;7.478;2022-09-03T13:24:38;1.95;;;1.70;;
12852;SDS011;6495;51.808;7.478;2022-09-03T13:27:29;2.55;;;1.60;;
12852;SDS011;6495;51.808;7.478;2022-09-03T13:30:06;2.35;;;1.50;;
12852;SDS011;6495;51.808;7.478;2022-09-03T13:32:41;1.50;;;1.40;;
12852;SDS011;6495;51.808;7.478;2022-09-03T13:35:26;6.05;;;1.70;;
12852;SDS011;6495;51.808;7.478;2022-09-03T13:38:04;1.90;;;1.80;;
12852;SDS011;6495;51.808;7.478;2022-09-03T13:40:50;1.75;;;1.65;;
12852;SDS011;6495;51.808;7.478;2022-09-03T13:43:26;2.50;;;1.60;;
12852;SDS011;6495;51.808;7.478;2022-09-03T13:46:01;1.98;;;1.75;;
12852;SDS011;6495;51.808;7.478;2022-09-03T13:48:35;2.45;;;1.80;;
12852;SDS011;6495;51.808;7.478;2022-09-03T13:51:27;3.85;;;1.70;;
12852;SDS011;6495;51.808;7.478;2022-09-03T13:54:06;1.60;;;1.50;;
12852;SDS011;6495;51.808;7.478;2022-09-03T13:57:03;1.83;;;1.60;;
12852;SDS011;6495;51.808;7.478;2022-09-03T13:59:47;1.50;;;1.40;;
12852;SDS011;6495;51.808;7.478;2022-09-03T14:02:22;1.85;;;1.75;;
12852;SDS011;6495;51.808;7.478;2022-09-03T14:05:03;2.03;;;1.58;;
12852;SDS011;6495;51.808;7.478;2022-09-03T14:07:43;5.50;;;1.60;;
12852;SDS011;6495;51.808;7.478;2022-09-03T14:10:29;2.28;;;1.50;;
12852;SDS011;6495;51.808;7.478;2022-09-03T14:13:13;2.42;;;1.70;;
12852;SDS011;6495;51.808;7.478;2022-09-03T14:15:51;3.33;;;1.75;;
12852;SDS011;6495;51.808;7.478;2022-09-03T14:18:39;3.70;;;1.48;;
12852;SDS011;6495;51.808;7.478;2022-09-03T14:21:17;2.88;;;1.40;;
12852;SDS011;6495;51.808;7.478;2022-09-03T14:23:53;1.60;;;1.50;;
12852;SDS011;6495;51.808;7.478;2022-09-03T14:26:31;1.73;;;1.52;;
12852;SDS011;6495;51.808;7.478;2022-09-03T14:29:06;3.08;;;1.70;;
12852;SDS011;6495;51.808;7.478;2022-09-03T14:31:48;4.20;;;1.70;;
12852;SDS011;6495;51.808;7.478;2022-09-03T14:34:49;2.08;;;1.88;;
12852;SDS011;6495;51.808;7.478;2022-09-03T14:37:40;1.73;;;1.63;;
12852;SDS011;6495;51.808;7.478;2022-09-03T14:40:39;1.88;;;1.67;;
12852;SDS011;6495;51.808;7.478;2022-09-03T14:43:23;2.90;;;1.73;;
12852;SDS011;6495;51.808;7.478;2022-09-03T14:46:21;2.20;;;1.90;;
12852;SDS011;6495;51.808;7.478;2022-09-03T14:49:10;2.00;;;1.63;;
12852;SDS011;6495;51.808;7.478;2022-09-03T14:52:05;3.58;;;1.67;;
12852;SDS011;6495;51.808;7.478;2022-09-03T14:55:12;7.15;;;2.10;;
12852;SDS011;6495;51.808;7.478;2022-09-03T14:58:16;1.80;;;1.70;;
12852;SDS011;6495;51.808;7.478;2022-09-03T15:01:02;2.28;;;1.70;;
12852;SDS011;6495;51.808;7.478;2022-09-03T15:03:46;1.73;;;1.63;;
12852;SDS011;6495;51.808;7.478;2022-09-03T15:06:59;4.68;;;1.90;;
12852;SDS011;6495;51.808;7.478;2022-09-03T15:09:53;3.03;;;1.77;;
12852;SDS011;6495;51.808;7.478;2022-09-03T15:12:32;1.85;;;1.75;;
12852;SDS011;6495;51.808;7.478;2022-09-03T15:15:09;2.75;;;1.80;;
12852;SDS011;6495;51.808;7.478;2022-09-03T15:17:53;5.40;;;1.80;;
12852;SDS011;6495;51.808;7.478;2022-09-03T15:20:41;2.83;;;1.52;;
12852;SDS011;6495;51.808;7.478;2022-09-03T15:23:22;3.65;;;1.70;;
12852;SDS011;6495;51.808;7.478;2022-09-03T15:26:18;2.97;;;2.45;;
12852;SDS011;6495;51.808;7.478;2022-09-03T15:29:06;1.98;;;1.77;;
12852;SDS011;6495;51.808;7.478;2022-09-03T15:31:50;2.55;;;1.98;;
12852;SDS011;6495;51.808;7.478;2022-09-03T15:34:40;4.03;;;1.60;;
12852;SDS011;6495;51.808;7.478;2022-09-03T15:37:26;2.17;;;1.67;;
12852;SDS011;6495;51.808;7.478;2022-09-03T15:40:03;2.10;;;1.90;;
12852;SDS011;6495;51.808;7.478;2022-09-03T15:42:36;6.07;;;1.73;;
12852;SDS011;6495;51.808;7.478;2022-09-03T15:45:05;1.88;;;1.58;;
12852;SDS011;6495;51.808;7.478;2022-09-03T15:48:00;3.72;;;1.70;;
12852;SDS011;6495;51.808;7.478;2022-09-03T15:50:51;1.90;;;1.73;;
12852;SDS011;6495;51.808;7.478;2022-09-03T15:53:28;3.55;;;1.60;;
12852;SDS011;6495;51.808;7.478;2022-09-03T15:59:02;1.98;;;1.80;;
12852;SDS011;6495;51.808;7.478;2022-09-03T16:01:43;4.13;;;2.00;;
12852;SDS011;6495;51.808;7.478;2022-09-03T16:04:37;2.08;;;1.90;;
12852;SDS011;6495;51.808;7.478;2022-09-03T16:07:23;2.33;;;1.80;;
12852;SDS011;6495;51.808;7.478;2022-09-03T16:10:06;2.00;;;1.50;;
12852;SDS011;6495;51.808;7.478;2022-09-03T16:12:56;1.70;;;1.60;;
12852;SDS011;6495;51.808;7.478;2022-09-03T16:15:35;2.55;;;1.80;;
12852;SDS011;6495;51.808;7.478;2022-09-03T16:18:21;1.83;;;1.67;;
12852;SDS011;6495;51.808;7.478;2022-09-03T16:20:59;2.70;;;1.65;;